Antoing, Belgium
Current Conditions -  °F | °C
As of 4:00 PM on Saturday 20 Dec 2014 (Local Time) from LFQQ Reporting Station
Scattered Clouds Scattered Clouds  
Wind Chill: 42°   Ceiling: Unl
Heat Index: 48°   Visibility: 6mi
Dew Point: 37°   Wind: 17mph
Humidity: 66%   Direction: 280°W
Pressure: 30.27"   Gusts: NA
Location:  50.57°N, 3.45°E
Report Text: LFQQ 201500Z 28015KT 9999 SCT040 09/03 Q1025 NOSIG
Loading
Personal Weather Stations






























Interactive Weather Map New forecast layout! Learn more

10-Day Weather Forecast

Advertisements
Track Severe Weather on mobile